Time;durP1;ratioP1;P1;durP2;ratioP2;P2;SDS_P1;SDS_P2;PMS_P1;PMS_P2;Temp;Humidity;BMP_temperature;BMP_pressure;BME280_temperature;BME280_humidity;BME280_pressure;Samples;Min_cycle;Max_cycle;Signal;HPM_P1;HPM_P2
2023/12/27 00:01:46;;;;;;;13.23;7.63;;;;;;;9.01;100.00;100593.69;6142724;23;20088;-85
2023/12/27 00:04:13;;;;;;;11.43;5.82;;;;;;;9.04;100.00;100604.06;6143556;23;20357;-85
2023/12/27 00:06:40;;;;;;;8.93;4.82;;;;;;;9.04;99.94;100591.66;6091633;23;20030;-85
2023/12/27 00:09:08;;;;;;;6.80;4.18;;;;;;;9.05;100.00;100589.84;6088833;23;20537;-85
2023/12/27 00:11:35;;;;;;;10.50;5.38;;;;;;;9.04;100.00;100581.06;6062359;23;20022;-85
2023/12/27 00:14:03;;;;;;;10.38;5.80;;;;;;;9.07;100.00;100586.13;6118623;23;20021;-86
2023/12/27 00:16:30;;;;;;;13.85;6.28;;;;;;;9.06;100.00;100586.25;6118415;23;20022;-85
2023/12/27 00:18:56;;;;;;;11.32;6.10;;;;;;;9.08;100.00;100593.13;6106540;23;20567;-85
2023/12/27 00:21:24;;;;;;;15.40;6.68;;;;;;;9.09;100.00;100591.34;6070380;23;20025;-85
2023/12/27 00:23:51;;;;;;;13.30;5.95;;;;;;;9.09;100.00;100596.63;6119148;23;20022;-86
2023/12/27 00:26:18;;;;;;;16.35;6.70;;;;;;;9.10;100.00;100603.63;6119963;23;20096;-86
2023/12/27 00:28:54;;;;;;;13.73;5.60;;;;;;;9.10;100.00;100596.50;6144598;23;20026;-85
2023/12/27 00:31:20;;;;;;;16.77;6.95;;;;;;;9.11;100.00;100594.72;6092942;23;20330;-85
2023/12/27 00:33:47;;;;;;;15.32;6.38;;;;;;;9.12;100.00;100604.34;6094851;23;20021;-85
2023/12/27 00:36:19;;;;;;;11.13;6.15;;;;;;;9.12;100.00;100614.97;6094411;23;20056;-85
2023/12/27 00:38:45;;;;;;;15.95;6.00;;;;;;;9.11;100.00;100606.16;6090963;23;20025;-85
2023/12/27 00:41:12;;;;;;;14.32;5.97;;;;;;;9.15;100.00;100605.94;6112652;23;20041;-85
2023/12/27 00:43:39;;;;;;;16.17;6.05;;;;;;;9.13;100.00;100608.69;6091066;23;20020;-86
2023/12/27 00:46:06;;;;;;;12.98;6.70;;;;;;;9.13;100.00;100611.34;6118651;23;20022;-85
2023/12/27 00:48:33;;;;;;;18.75;5.50;;;;;;;9.15;100.00;100606.78;6094442;23;20030;-85
2023/12/27 00:51:02;;;;;;;17.33;5.95;;;;;;;9.13;100.00;100596.31;6118163;23;20027;-85
2023/12/27 00:53:29;;;;;;;16.73;5.40;;;;;;;9.12;100.00;100581.34;6094206;23;20061;-85
2023/12/27 00:55:58;;;;;;;14.93;5.68;;;;;;;9.08;100.00;100587.84;6142425;23;20032;-85
2023/12/27 00:58:25;;;;;;;8.98;4.53;;;;;;;9.11;100.00;100589.44;6094326;23;20092;-86
2023/12/27 01:00:51;;;;;;;12.02;4.90;;;;;;;9.11;100.00;100598.22;6142211;23;20018;-85
2023/12/27 01:03:18;;;;;;;9.65;5.05;;;;;;;9.15;100.00;100598.00;6118586;23;20029;-85
2023/12/27 01:05:46;;;;;;;11.18;4.97;;;;;;;9.17;100.00;100596.09;6094045;23;20068;-85
2023/12/27 01:08:13;;;;;;;14.25;4.80;;;;;;;9.17;100.00;100588.16;6119594;23;20453;-85
2023/12/27 01:10:39;;;;;;;9.85;4.20;;;;;;;9.16;100.00;100595.25;6116683;23;20571;-85
2023/12/27 01:13:07;;;;;;;13.05;5.15;;;;;;;9.13;100.00;100598.97;6096849;23;20121;-85
2023/12/27 01:15:34;;;;;;;13.63;4.95;;;;;;;9.13;100.00;100592.78;6121125;23;20076;-85
2023/12/27 01:18:01;;;;;;;10.00;5.03;;;;;;;9.11;100.00;100592.06;6096321;23;20025;-85
2023/12/27 01:20:28;;;;;;;9.90;4.63;;;;;;;9.11;100.00;100584.13;6119503;23;20021;-85
2023/12/27 01:22:57;;;;;;;15.57;4.55;;;;;;;9.13;100.00;100593.66;6143937;23;20101;-85
2023/12/27 01:25:24;;;;;;;10.38;4.70;;;;;;;9.11;100.00;100586.78;6145218;23;20032;-85
2023/12/27 01:27:51;;;;;;;12.20;4.32;;;;;;;9.11;100.00;100592.91;6095545;23;20049;-85
2023/12/27 01:30:19;;;;;;;14.13;5.65;;;;;;;9.11;100.00;100584.13;6126689;23;20017;-85
2023/12/27 01:32:46;;;;;;;18.67;5.03;;;;;;;9.10;100.00;100588.56;6103917;23;20648;-85
2023/12/27 01:35:13;;;;;;;12.38;4.10;;;;;;;9.11;100.00;100597.38;6096665;23;20048;-85
2023/12/27 01:37:40;;;;;;;10.25;4.07;;;;;;;9.12;100.00;100599.06;6145639;23;20076;-85
2023/12/27 01:40:07;;;;;;;8.23;3.95;;;;;;;9.09;100.00;100594.81;6089671;23;20018;-86
2023/12/27 01:42:34;;;;;;;8.25;3.92;;;;;;;9.08;100.00;100598.44;6067538;23;20448;-85
2023/12/27 01:45:01;;;;;;;13.00;4.97;;;;;;;9.08;100.00;100603.75;6080050;23;20433;-85
2023/12/27 01:47:29;;;;;;;12.98;4.40;;;;;;;9.08;100.00;100606.38;6093398;23;20029;-85
2023/12/27 01:49:56;;;;;;;11.40;5.32;;;;;;;9.06;100.00;100608.28;6065863;23;20105;-85
2023/12/27 01:52:23;;;;;;;10.48;4.40;;;;;;;9.08;100.00;100606.38;6116158;23;20026;-85
2023/12/27 01:54:50;;;;;;;9.52;3.85;;;;;;;9.08;100.00;100600.22;6119248;23;20025;-85
2023/12/27 01:57:17;;;;;;;9.27;4.10;;;;;;;9.08;100.00;100608.16;6095645;23;20075;-85
2023/12/27 01:59:47;;;;;;;8.50;3.63;;;;;;;9.07;100.00;100595.88;6143924;23;20021;-85
2023/12/27 02:02:14;;;;;;;11.35;4.15;;;;;;;9.08;100.00;100600.22;6120440;23;20458;-85
2023/12/27 02:04:42;;;;;;;8.15;3.72;;;;;;;9.07;100.00;100585.28;6096234;23;20353;-85
2023/12/27 02:07:09;;;;;;;16.60;4.78;;;;;;;9.07;100.00;100590.59;6145264;23;20029;-86
2023/12/27 02:09:54;;;;;;;11.75;3.97;;;;;;;9.06;100.00;100588.91;6101414;23;20044;-86
2023/12/27 02:12:29;;;;;;;17.48;4.75;;;;;;;9.02;100.00;100593.56;6096422;23;20448;-86
2023/12/27 02:14:57;;;;;;;18.83;4.32;;;;;;;9.04;100.00;100588.16;6120007;23;20045;-85
2023/12/27 02:17:28;;;;;;;14.02;5.53;;;;;;;8.98;100.00;100577.97;6119676;23;20025;-85
2023/12/27 02:19:55;;;;;;;14.73;4.72;;;;;;;8.99;100.00;100571.75;6094767;23;20080;-85
2023/12/27 02:22:23;;;;;;;15.52;4.70;;;;;;;9.01;100.00;100578.63;6119723;23;20025;-85
2023/12/27 02:24:52;;;;;;;12.05;3.95;;;;;;;8.97;100.00;100579.78;6118866;23;20048;-85
2023/12/27 02:27:19;;;;;;;11.98;4.43;;;;;;;8.96;100.00;100577.25;6145021;23;20021;-85
2023/12/27 02:29:46;;;;;;;8.75;3.88;;;;;;;8.90;99.98;100568.78;6066279;23;20032;-85
2023/12/27 02:32:14;;;;;;;10.82;4.10;;;;;;;8.88;99.61;100581.28;6076406;23;20021;-86
2023/12/27 02:34:41;;;;;;;11.38;3.90;;;;;;;8.87;99.33;100573.44;6119676;23;20025;-85
2023/12/27 02:37:08;;;;;;;9.07;4.25;;;;;;;8.84;98.80;100571.00;6120005;23;20691;-85
2023/12/27 02:39:35;;;;;;;8.85;3.75;;;;;;;8.84;98.76;100578.94;6106353;23;20018;-85
2023/12/27 02:42:01;;;;;;;9.55;3.42;;;;;;;8.80;98.57;100580.09;6095890;23;20017;-86
2023/12/27 02:44:29;;;;;;;8.18;3.78;;;;;;;8.75;98.56;100579.56;6120251;23;20353;-85
2023/12/27 02:47:01;;;;;;;11.40;4.15;;;;;;;8.75;98.17;100575.16;6131688;23;20017;-85
2023/12/27 02:49:28;;;;;;;15.88;4.88;;;;;;;8.75;98.14;100579.56;6094729;23;20726;-85
2023/12/27 02:51:56;;;;;;;10.80;4.63;;;;;;;8.74;98.03;100580.53;6095082;23;20026;-86
2023/12/27 02:54:23;;;;;;;11.57;4.78;;;;;;;8.72;97.93;100579.78;6119020;23;20045;-85
2023/12/27 02:56:50;;;;;;;12.55;4.28;;;;;;;8.73;98.03;100584.13;6130105;23;20483;-85
2023/12/27 02:59:17;;;;;;;8.55;4.10;;;;;;;8.68;97.99;100580.00;6119111;23;20034;-85
2023/12/27 03:01:44;;;;;;;16.02;5.13;;;;;;;8.67;98.14;100583.59;6094741;23;20041;-85
2023/12/27 03:04:11;;;;;;;12.95;3.92;;;;;;;8.68;98.44;100579.16;6094936;23;20033;-85
2023/12/27 03:06:38;;;;;;;11.52;4.90;;;;;;;8.68;98.70;100573.88;6094621;23;20539;-85
2023/12/27 03:09:05;;;;;;;12.25;4.85;;;;;;;8.68;98.44;100580.00;6144413;23;20748;-85
2023/12/27 03:11:34;;;;;;;11.85;4.43;;;;;;;8.69;98.75;100578.19;6105679;23;20057;-85
2023/12/27 03:14:01;;;;;;;13.43;4.82;;;;;;;8.71;98.76;100570.16;6093860;23;20095;-85
2023/12/27 03:16:28;;;;;;;19.35;5.60;;;;;;;8.71;98.92;100565.72;6120371;23;20017;-85
2023/12/27 03:18:56;;;;;;;16.17;6.03;;;;;;;8.71;99.05;100570.16;6143668;23;20017;-85
2023/12/27 03:21:23;;;;;;;13.90;6.07;;;;;;;8.73;98.71;100562.94;6094791;23;20021;-85
2023/12/27 03:23:50;;;;;;;11.20;5.20;;;;;;;8.71;98.92;100560.41;6118919;23;20064;-85
2023/12/27 03:26:17;;;;;;;11.35;4.95;;;;;;;8.72;99.10;100554.16;6118734;23;20045;-85
2023/12/27 03:28:44;;;;;;;10.75;5.72;;;;;;;8.73;99.00;100544.41;6143370;23;20032;-86
2023/12/27 03:31:12;;;;;;;19.58;5.53;;;;;;;8.76;99.01;100554.81;6142110;23;20096;-85
2023/12/27 03:33:39;;;;;;;14.68;6.05;;;;;;;8.75;98.87;100551.31;6118043;23;20464;-85
2023/12/27 03:36:06;;;;;;;15.65;5.80;;;;;;;8.76;99.51;100560.09;6143515;23;20323;-85
2023/12/27 03:38:33;;;;;;;16.05;5.20;;;;;;;8.75;99.35;100553.97;6119256;23;20025;-85
2023/12/27 03:41:00;;;;;;;13.00;5.55;;;;;;;8.73;99.77;100553.22;6130148;23;20418;-85
2023/12/27 03:43:27;;;;;;;23.88;6.95;;;;;;;8.77;99.63;100545.91;6095049;23;20028;-85
2023/12/27 03:45:54;;;;;;;11.93;6.15;;;;;;;8.74;100.00;100541.66;6119378;23;20022;-85
2023/12/27 03:48:21;;;;;;;14.40;6.15;;;;;;;8.76;100.00;100534.47;6118780;23;20025;-85
2023/12/27 03:50:48;;;;;;;15.65;6.72;;;;;;;8.78;99.89;100540.50;6142246;23;20025;-85
2023/12/27 03:53:15;;;;;;;18.75;7.25;;;;;;;8.77;100.00;100543.25;6119771;23;20028;-85
2023/12/27 03:55:42;;;;;;;18.40;7.32;;;;;;;8.76;100.00;100541.56;6106680;23;20049;-86
2023/12/27 03:58:09;;;;;;;16.42;6.80;;;;;;;8.76;100.00;100539.75;6095117;23;20033;-85
2023/12/27 04:00:36;;;;;;;17.20;8.15;;;;;;;8.75;100.00;100539.84;6118362;23;20550;-85
2023/12/27 04:03:03;;;;;;;14.30;6.80;;;;;;;8.75;100.00;100538.06;6081388;23;20165;-85
2023/12/27 04:05:30;;;;;;;23.15;6.72;;;;;;;8.75;100.00;100538.06;6143146;23;20170;-85
2023/12/27 04:07:57;;;;;;;17.00;6.05;;;;;;;8.77;100.00;100533.50;6095236;23;20017;-85
2023/12/27 04:10:31;;;;;;;13.05;4.55;;;;;;;8.78;100.00;100532.56;6117754;23;20045;-85
2023/12/27 04:13:01;;;;;;;10.60;4.70;;;;;;;8.78;100.00;100532.56;6133310;23;20091;-85
2023/12/27 04:15:28;;;;;;;13.23;5.72;;;;;;;8.81;100.00;100531.50;6144783;23;20096;-85
2023/12/27 04:18:37;;;;;;;14.45;5.65;;;;;;;8.77;100.00;100524.72;6038422;23;20022;-85
2023/12/27 04:21:04;;;;;;;14.25;5.32;;;;;;;8.79;100.00;100523.66;6033997;23;20030;-85
2023/12/27 04:23:31;;;;;;;10.73;4.47;;;;;;;8.80;100.00;100527.13;6012181;23;20167;-85
2023/12/27 04:25:58;;;;;;;15.32;5.20;;;;;;;8.81;100.00;100528.84;6059357;23;20097;-85
2023/12/27 04:28:25;;;;;;;11.50;5.00;;;;;;;8.80;100.00;100517.41;6035015;23;20407;-85
2023/12/27 04:30:52;;;;;;;11.98;5.28;;;;;;;8.80;100.00;100520.06;6058148;23;20074;-85
2023/12/27 04:33:19;;;;;;;7.97;4.53;;;;;;;8.80;100.00;100513.91;6059202;23;20694;-85
2023/12/27 04:35:47;;;;;;;11.52;4.43;;;;;;;8.76;100.00;100513.28;6035167;23;20026;-85
2023/12/27 04:38:14;;;;;;;12.10;4.57;;;;;;;8.78;100.00;100519.31;6010618;23;20030;-85
2023/12/27 04:40:47;;;;;;;13.88;5.63;;;;;;;8.76;100.00;100512.44;6010067;23;20030;-85
2023/12/27 04:43:15;;;;;;;20.38;8.00;;;;;;;8.77;100.00;100519.41;6035755;23;20103;-85
2023/12/27 04:45:42;;;;;;;15.27;7.88;;;;;;;8.79;100.00;100526.28;6009972;23;20026;-85
2023/12/27 04:48:09;;;;;;;12.65;6.20;;;;;;;8.80;100.00;100506.81;6043575;23;20029;-85
2023/12/27 04:50:36;;;;;;;11.45;5.55;;;;;;;8.80;100.00;100521.84;6142877;23;20013;-85
2023/12/27 04:53:03;;;;;;;11.55;6.15;;;;;;;8.79;100.00;100520.16;6118146;23;20469;-85
2023/12/27 04:55:30;;;;;;;12.85;5.93;;;;;;;8.79;100.00;100528.09;6117982;23;20034;-85
2023/12/27 04:57:57;;;;;;;12.63;5.30;;;;;;;8.78;100.00;100518.47;6094412;23;20076;-85
2023/12/27 05:00:24;;;;;;;10.88;5.28;;;;;;;8.80;100.00;100529.78;6142195;23;20022;-85
2023/12/27 05:02:52;;;;;;;14.98;5.32;;;;;;;8.76;100.00;100521.22;6118561;23;20029;-85
2023/12/27 05:05:19;;;;;;;11.25;4.97;;;;;;;8.78;100.00;100529.06;6119075;23;20049;-85
2023/12/27 05:07:46;;;;;;;13.80;5.68;;;;;;;8.79;100.00;100534.25;6117738;23;20051;-85
2023/12/27 05:10:13;;;;;;;12.88;5.40;;;;;;;8.79;100.00;100525.47;6141375;23;20033;-85
2023/12/27 05:12:40;;;;;;;10.65;4.57;;;;;;;8.78;100.00;100524.63;6094030;23;20021;-85
2023/12/27 05:15:07;;;;;;;11.65;5.05;;;;;;;8.75;100.00;100521.31;6143001;23;20025;-85
2023/12/27 05:17:34;;;;;;;16.02;5.07;;;;;;;8.77;100.00;100540.59;6142875;23;20029;-85
2023/12/27 05:20:01;;;;;;;14.05;4.95;;;;;;;8.78;100.00;100531.72;6118050;23;20084;-85
2023/12/27 05:22:29;;;;;;;18.17;5.15;;;;;;;8.77;100.00;100541.44;6142957;23;20509;-85
2023/12/27 05:24:56;;;;;;;9.48;4.57;;;;;;;8.75;100.00;100532.78;6142379;23;20714;-85
2023/12/27 05:27:23;;;;;;;13.43;5.57;;;;;;;8.75;100.00;100534.56;6119190;23;20033;-85
2023/12/27 05:29:50;;;;;;;15.38;5.30;;;;;;;8.75;100.00;100523.97;6116696;23;20064;-84
2023/12/27 05:32:17;;;;;;;10.20;5.68;;;;;;;8.76;100.00;100528.31;6094688;23;20430;-85
2023/12/27 05:34:44;;;;;;;13.77;5.78;;;;;;;8.73;100.00;100532.03;6117601;23;20022;-85
2023/12/27 05:37:11;;;;;;;11.27;4.88;;;;;;;8.74;100.00;100525.78;6141551;23;20026;-85
2023/12/27 05:39:38;;;;;;;16.42;5.65;;;;;;;8.73;100.00;100532.03;6118043;23;20026;-85
2023/12/27 05:42:05;;;;;;;16.00;6.00;;;;;;;8.72;100.00;100524.19;6119037;23;20068;-85
2023/12/27 05:44:32;;;;;;;11.15;5.40;;;;;;;8.69;100.00;100514.66;6093728;23;20121;-85
2023/12/27 05:47:00;;;;;;;13.80;5.40;;;;;;;8.72;100.00;100511.78;6093694;23;20032;-85
2023/12/27 05:49:27;;;;;;;13.50;5.65;;;;;;;8.72;100.00;100503.84;6094285;23;20021;-85
2023/12/27 05:51:54;;;;;;;8.32;5.15;;;;;;;8.74;100.00;100495.81;6116656;23;20024;-85
2023/12/27 05:54:25;;;;;;;11.63;5.07;;;;;;;8.72;100.00;100495.91;6083938;23;20024;-85
2023/12/27 05:56:53;;;;;;;14.13;4.85;;;;;;;8.72;100.00;100485.31;6141947;23;20361;-85
2023/12/27 05:59:19;;;;;;;14.43;5.32;;;;;;;8.72;100.00;100487.97;6120119;23;20338;-85
2023/12/27 06:01:52;;;;;;;12.38;5.32;;;;;;;8.73;100.00;100484.38;6144237;23;20453;-85
2023/12/27 06:04:19;;;;;;;;;;;;;;;8.61;100.00;100491.38;6073043;23;20021;-85
2023/12/27 06:06:49;;;;;;;11.40;5.03;;;;;;;8.66;100.00;100483.94;6119959;23;20417;-85
2023/12/27 06:09:16;;;;;;;12.68;5.00;;;;;;;8.67;100.00;100482.97;6095559;23;20092;-86
2023/12/27 06:11:46;;;;;;;13.40;4.93;;;;;;;8.68;100.00;100482.03;6096028;23;20017;-85
2023/12/27 06:14:13;;;;;;;15.27;5.28;;;;;;;8.69;100.00;100470.47;6119607;23;20409;-85
2023/12/27 06:16:40;;;;;;;11.32;5.25;;;;;;;8.68;100.00;100473.25;6143655;23;20025;-84
2023/12/27 06:19:07;;;;;;;14.15;5.13;;;;;;;8.68;100.00;100467.97;6120035;23;20096;-85
2023/12/27 06:21:34;;;;;;;10.30;5.00;;;;;;;8.71;100.00;100472.19;6119225;23;20095;-85
2023/12/27 06:24:01;;;;;;;11.75;5.13;;;;;;;8.69;100.00;100474.94;6119167;23;20029;-85
2023/12/27 06:26:28;;;;;;;12.48;4.43;;;;;;;8.72;100.00;100474.72;6119949;23;20109;-85
2023/12/27 06:28:55;;;;;;;9.45;4.70;;;;;;;8.73;100.00;100475.56;6119840;23;20377;-85
2023/12/27 06:31:22;;;;;;;8.70;4.50;;;;;;;8.69;100.00;100469.66;6117837;23;20028;-85
2023/12/27 06:33:52;;;;;;;14.73;5.22;;;;;;;8.71;100.00;100480.97;6120438;23;20022;-85
2023/12/27 06:36:22;;;;;;;11.77;4.68;;;;;;;8.74;100.00;100483.41;6095188;23;20100;-85
2023/12/27 06:38:49;;;;;;;9.93;5.10;;;;;;;8.74;100.00;100486.06;6119655;23;20036;-86
2023/12/27 06:41:16;;;;;;;15.40;5.68;;;;;;;8.71;100.00;100490.72;6095299;23;20014;-86
2023/12/27 06:43:43;;;;;;;13.43;5.07;;;;;;;8.68;100.00;100489.97;6119846;23;20060;-86
2023/12/27 06:46:10;;;;;;;12.63;4.85;;;;;;;8.72;100.00;100489.75;6144248;23;20036;-86
2023/12/27 06:48:37;;;;;;;14.05;5.40;;;;;;;8.71;100.00;100486.28;6143678;23;20508;-86
2023/12/27 06:51:06;;;;;;;9.85;4.78;;;;;;;8.68;100.00;100481.19;6118291;23;20022;-86
2023/12/27 06:53:34;;;;;;;11.20;6.00;;;;;;;8.71;100.00;100477.50;6143855;23;20033;-86
2023/12/27 06:56:01;;;;;;;8.35;4.22;;;;;;;8.70;100.00;100492.50;6094605;23;20028;-86
2023/12/27 06:58:28;;;;;;;18.05;5.38;;;;;;;8.73;100.00;100491.44;6095173;23;20024;-86
2023/12/27 07:00:55;;;;;;;8.88;4.75;;;;;;;8.74;100.00;100494.00;6118385;23;20399;-86
2023/12/27 07:03:21;;;;;;;14.23;5.03;;;;;;;8.73;100.00;100500.25;6120424;23;20035;-86
2023/12/27 07:05:48;;;;;;;12.23;4.85;;;;;;;8.75;100.00;100498.34;6119213;23;20072;-86
2023/12/27 07:08:15;;;;;;;12.43;4.90;;;;;;;8.73;100.00;100481.72;6119281;23;20021;-85
2023/12/27 07:10:42;;;;;;;11.30;5.03;;;;;;;8.73;100.00;100484.38;6142843;23;20048;-86
2023/12/27 07:13:09;;;;;;;14.65;5.28;;;;;;;8.74;100.00;100480.75;6143481;23;20747;-86
2023/12/27 07:15:36;;;;;;;15.30;4.53;;;;;;;8.73;100.00;100476.44;6118916;23;20030;-84
2023/12/27 07:18:03;;;;;;;13.82;4.75;;;;;;;8.69;100.00;100477.59;6144530;23;20033;-85
2023/12/27 07:20:30;;;;;;;12.30;6.80;;;;;;;8.69;100.00;100477.59;6129482;23;20026;-86
2023/12/27 07:22:57;;;;;;;15.45;5.35;;;;;;;8.72;100.00;100487.13;6094618;23;20025;-85
2023/12/27 07:25:25;;;;;;;13.43;6.28;;;;;;;8.72;100.00;100487.97;6119707;23;20639;-86
2023/12/27 07:27:52;;;;;;;23.05;9.63;;;;;;;8.73;100.00;100491.44;6143771;23;20076;-86
2023/12/27 07:30:18;;;;;;;24.83;8.57;;;;;;;8.71;100.00;100486.28;6106330;23;20025;-83
2023/12/27 07:32:45;;;;;;;17.08;6.53;;;;;;;8.71;100.00;100478.34;6144411;23;20033;-85
2023/12/27 07:35:12;;;;;;;11.57;4.18;;;;;;;8.70;100.00;100481.91;6094631;23;20029;-85
2023/12/27 07:37:41;;;;;;;12.50;4.18;;;;;;;8.69;100.00;100474.94;6093144;23;20041;-86
2023/12/27 07:40:09;;;;;;;7.07;4.00;;;;;;;8.71;100.00;100478.34;6118315;23;20402;-86
2023/12/27 07:42:35;;;;;;;15.05;5.30;;;;;;;8.69;100.00;100474.94;6094657;23;20390;-86
2023/12/27 07:45:04;;;;;;;12.90;5.47;;;;;;;8.72;100.00;100484.47;6118655;23;20092;-86
2023/12/27 07:47:33;;;;;;;8.85;4.78;;;;;;;8.70;100.00;100489.84;6118733;23;20394;-86
2023/12/27 07:50:00;;;;;;;17.27;5.28;;;;;;;8.69;100.00;100485.53;6092590;23;20033;-86
2023/12/27 07:52:27;;;;;;;8.57;4.20;;;;;;;8.66;100.00;100486.59;6143140;23;20076;-86
2023/12/27 07:54:58;;;;;;;11.27;4.50;;;;;;;8.65;100.00;100486.69;6104269;23;20080;-85
2023/12/27 07:57:25;;;;;;;13.45;4.88;;;;;;;8.62;100.00;100487.75;6082101;23;20047;-86
2023/12/27 07:59:55;;;;;;;13.18;4.80;;;;;;;8.62;100.00;100484.25;6101657;23;20028;-89
2023/12/27 08:02:22;;;;;;;15.57;4.60;;;;;;;8.66;100.00;100491.03;6088515;23;20049;-89
2023/12/27 08:04:49;;;;;;;11.95;4.82;;;;;;;8.66;100.00;100488.41;6094176;23;20029;-89
2023/12/27 08:07:16;;;;;;;13.98;5.03;;;;;;;8.67;100.00;100495.38;6119565;23;20018;-89
2023/12/27 08:09:43;;;;;;;20.20;5.57;;;;;;;8.69;100.00;100501.41;6143879;23;20017;-89
2023/12/27 08:12:10;;;;;;;11.60;5.10;;;;;;;8.70;100.00;100508.41;6119520;23;20049;-89
2023/12/27 08:14:37;;;;;;;16.65;5.85;;;;;;;8.68;100.00;100511.16;6119134;23;20033;-89
2023/12/27 08:17:05;;;;;;;17.48;6.65;;;;;;;8.71;100.00;100514.56;6095374;23;20524;-89
2023/12/27 08:19:32;;;;;;;14.57;5.72;;;;;;;8.72;100.00;100500.34;6118534;23;20048;-88
2023/12/27 08:21:59;;;;;;;16.55;4.90;;;;;;;8.72;100.00;100493.25;6118112;23;20030;-89
2023/12/27 08:24:25;;;;;;;17.02;5.38;;;;;;;8.75;100.00;100500.13;6120352;23;20013;-87
2023/12/27 08:26:52;;;;;;;15.35;4.85;;;;;;;8.73;100.00;100487.03;6119107;23;20044;-88
2023/12/27 08:29:19;;;;;;;13.88;6.80;;;;;;;8.72;100.00;100484.47;6094633;23;20029;-85
2023/12/27 08:31:46;;;;;;;12.65;5.82;;;;;;;8.69;100.00;100477.59;6118689;23;20087;-89
2023/12/27 08:34:13;;;;;;;16.48;6.80;;;;;;;8.68;100.00;100468.81;6143369;23;20441;-88
2023/12/27 08:36:44;;;;;;;16.90;7.70;;;;;;;8.66;100.00;100472.50;6144282;23;20032;-86
2023/12/27 08:39:12;;;;;;;16.10;7.22;;;;;;;8.67;100.00;100463.59;6094937;23;20036;-84
2023/12/27 08:41:38;;;;;;;16.50;8.77;;;;;;;8.68;100.00;100466.16;6119113;23;20025;-85
2023/12/27 08:44:05;;;;;;;21.15;9.93;;;;;;;8.67;100.00;100464.44;6142462;23;20104;-85
2023/12/27 08:46:32;;;;;;;21.15;9.10;;;;;;;8.69;100.00;100459.91;6119213;23;20743;-85
2023/12/27 08:48:59;;;;;;;16.25;8.52;;;;;;;8.69;100.00;100464.34;6118182;23;20717;-85
2023/12/27 08:51:26;;;;;;;19.40;8.30;;;;;;;8.73;100.00;100444.66;6118640;23;20449;-84
2023/12/27 08:53:53;;;;;;;22.77;8.32;;;;;;;8.75;100.00;100431.28;6095064;23;20092;-85
2023/12/27 08:56:20;;;;;;;18.88;8.45;;;;;;;8.77;100.00;100418.78;6143553;23;20104;-86
2023/12/27 08:58:46;;;;;;;23.55;7.97;;;;;;;8.76;100.00;100404.72;6118300;23;20029;-86
2023/12/27 09:01:13;;;;;;;26.58;8.00;;;;;;;8.75;100.00;100384.50;6117919;23;20032;-86
2023/12/27 09:03:40;;;;;;;18.50;8.95;;;;;;;8.77;100.00;100379.91;6142805;23;20379;-84
2023/12/27 09:06:08;;;;;;;22.88;9.57;;;;;;;8.79;100.00;100390.41;6117812;23;20017;-85
2023/12/27 09:08:38;;;;;;;43.30;17.30;;;;;;;8.77;100.00;100405.56;6118678;23;20096;-85
2023/12/27 09:11:04;;;;;;;41.78;17.10;;;;;;;8.81;100.00;100402.59;6092185;23;20049;-85
2023/12/27 09:13:31;;;;;;;28.98;10.95;;;;;;;8.85;100.00;100405.84;6094044;23;20092;-85
2023/12/27 09:15:58;;;;;;;25.70;9.13;;;;;;;8.90;100.00;100403.72;6118266;23;20473;-84
2023/12/27 09:18:25;;;;;;;21.63;9.10;;;;;;;8.94;100.00;100409.66;6145873;23;20042;-85
2023/12/27 09:20:52;;;;;;;24.60;9.95;;;;;;;8.97;100.00;100412.91;6117809;23;20072;-85
2023/12/27 09:23:20;;;;;;;17.75;8.13;;;;;;;9.02;100.00;100409.94;6142033;23;20026;-84
2023/12/27 09:25:47;;;;;;;21.20;8.57;;;;;;;9.06;100.00;100412.25;6118243;23;20057;-85
2023/12/27 09:28:14;;;;;;;21.25;9.07;;;;;;;9.09;100.00;100398.78;6142702;23;20025;-85
2023/12/27 09:30:41;;;;;;;21.65;7.97;;;;;;;9.11;100.00;100418.06;6116296;23;20036;-84
2023/12/27 09:33:08;;;;;;;17.85;9.18;;;;;;;9.09;100.00;100421.78;6120497;23;20048;-85
2023/12/27 09:35:35;;;;;;;21.83;8.75;;;;;;;9.09;100.00;100422.63;6120973;23;20045;-85
2023/12/27 09:38:02;;;;;;;18.35;7.63;;;;;;;9.10;100.00;100410.22;6119013;23;20029;-85
2023/12/27 09:40:29;;;;;;;18.58;8.23;;;;;;;9.13;100.00;100404.69;6142394;23;20030;-85
2023/12/27 09:42:56;;;;;;;24.23;8.75;;;;;;;9.11;100.00;100388.06;6143805;23;20039;-85
2023/12/27 09:45:23;;;;;;;23.27;8.88;;;;;;;9.15;100.00;100399.28;6120619;23;20033;-86
2023/12/27 09:47:53;;;;;;;18.40;7.93;;;;;;;9.17;100.00;100405.31;6070759;23;20026;-86
2023/12/27 09:50:21;;;;;;;17.13;7.93;;;;;;;9.18;100.00;100399.03;6143632;23;20445;-86
2023/12/27 09:52:48;;;;;;;22.35;9.65;;;;;;;9.19;100.00;100408.72;6119897;23;20381;-88
2023/12/27 09:55:15;;;;;;;19.15;8.75;;;;;;;9.19;100.00;100406.91;6096356;23;20475;-86
2023/12/27 09:57:42;;;;;;;24.20;9.85;;;;;;;9.21;100.00;100412.06;6096407;23;20022;-88
2023/12/27 10:00:12;;;;;;;20.40;9.18;;;;;;;9.21;100.00;100402.34;6119557;23;20037;-87
2023/12/27 10:02:41;;;;;;;19.17;9.10;;;;;;;9.24;100.00;100395.97;6097188;23;20021;-87
2023/12/27 10:05:14;;;;;;;17.17;9.05;;;;;;;9.24;100.00;100398.63;6120072;23;20056;-87
2023/12/27 10:07:42;;;;;;;23.23;8.82;;;;;;;9.29;100.00;100393.81;6120205;23;20022;-87
2023/12/27 10:10:09;;;;;;;27.25;8.60;;;;;;;9.32;100.00;100382.97;6119627;23;20120;-86
2023/12/27 10:12:50;;;;;;;21.00;9.15;;;;;;;9.34;100.00;100370.47;6144581;23;20021;-86
2023/12/27 10:15:17;;;;;;;23.13;8.80;;;;;;;9.37;100.00;100372.03;6095869;23;20022;-86
2023/12/27 10:17:44;;;;;;;18.35;8.32;;;;;;;9.39;100.00;100363.00;6120256;23;20029;-87
2023/12/27 10:20:32;;;;;;;22.05;6.80;;;;;;;9.32;100.00;100349.38;6143956;23;20514;-86
2023/12/27 10:23:00;;;;;;;14.38;6.72;;;;;;;9.39;100.00;100339.16;6094578;23;20084;-89
2023/12/27 10:25:28;;;;;;;20.67;7.00;;;;;;;9.40;100.00;100340.84;6120686;23;20025;-85
2023/12/27 10:27:56;;;;;;;16.73;6.95;;;;;;;9.42;100.00;100330.97;6121825;23;20040;-90
2023/12/27 10:30:24;;;;;;;19.90;6.95;;;;;;;9.46;100.00;100324.47;6116376;23;20052;-88
2023/12/27 10:32:58;;;;;;;12.95;6.78;;;;;;;9.47;100.00;100330.63;6066589;23;20049;-85
2023/12/27 10:35:26;;;;;;;16.25;6.78;;;;;;;9.49;100.00;100323.38;6139420;23;20080;-88
2023/12/27 10:38:01;;;;;;;12.70;5.93;;;;;;;9.51;100.00;100326.75;6139253;23;20023;-89
2023/12/27 10:40:29;;;;;;;13.68;6.25;;;;;;;9.55;100.00;100330.88;6118753;23;20712;-84
2023/12/27 10:42:56;;;;;;;16.85;5.95;;;;;;;9.55;100.00;100328.22;6144467;23;20401;-84
2023/12/27 10:45:23;;;;;;;10.75;5.53;;;;;;;9.54;100.00;100319.44;6144960;23;20060;-85
2023/12/27 10:47:59;;;;;;;13.07;6.80;;;;;;;9.55;100.00;100320.28;6119739;23;20401;-85
2023/12/27 10:50:28;;;;;;;13.18;5.57;;;;;;;9.55;100.00;100312.31;6119019;23;20017;-84
2023/12/27 10:53:03;;;;;;;10.85;5.03;;;;;;;9.55;100.00;100312.31;6119918;23;20048;-84
2023/12/27 10:55:30;;;;;;;10.32;5.40;;;;;;;9.56;100.00;100312.19;6120407;23;20346;-84
2023/12/27 10:57:59;;;;;;;9.82;4.95;;;;;;;9.56;100.00;100308.69;6143576;23;20476;-84
2023/12/27 11:00:27;;;;;;;10.95;5.70;;;;;;;9.55;100.00;100302.56;6143419;23;20026;-84
2023/12/27 11:02:55;;;;;;;11.20;5.05;;;;;;;9.58;99.87;100306.78;6095435;23;20195;-84
2023/12/27 11:05:23;;;;;;;9.15;4.85;;;;;;;9.59;99.85;100312.91;6119932;23;20021;-84
2023/12/27 11:07:50;;;;;;;13.43;4.93;;;;;;;9.59;99.65;100313.75;6143822;23;20097;-84
2023/12/27 11:10:17;;;;;;;11.02;4.20;;;;;;;9.60;99.41;100294.25;6143329;23;20098;-84
2023/12/27 11:12:46;;;;;;;10.82;5.10;;;;;;;9.62;99.22;100286.19;6120139;23;20018;-84
2023/12/27 11:15:14;;;;;;;11.18;5.05;;;;;;;9.63;98.95;100274.63;6145652;23;20033;-84
2023/12/27 11:17:41;;;;;;;8.32;4.82;;;;;;;9.65;98.94;100268.22;6095895;23;20080;-84
2023/12/27 11:20:16;;;;;;;12.93;4.78;;;;;;;9.67;98.62;100265.47;6143774;23;20070;-84
2023/12/27 11:22:44;;;;;;;9.13;4.60;;;;;;;9.69;98.57;100263.53;6144035;23;20092;-84